createdAt,value
2023-05-27T00:00:52.940Z,75.87
2023-05-27T00:01:56.036Z,76.22
2023-05-27T00:03:05.245Z,76.54
2023-05-27T00:04:08.621Z,76.26
2023-05-27T00:05:11.936Z,76.29
2023-05-27T00:06:14.962Z,76.59
2023-05-27T00:07:17.871Z,76.58
2023-05-27T00:08:20.937Z,76.68
2023-05-27T00:09:23.930Z,76.71
2023-05-27T00:10:26.799Z,77.28
2023-05-27T00:11:29.652Z,76.76
2023-05-27T00:12:32.557Z,77.33
2023-05-27T00:13:35.959Z,77.34
2023-05-27T00:14:38.864Z,77.23
2023-05-27T00:15:42.697Z,76.66
2023-05-27T00:16:45.732Z,76.16
2023-05-27T00:17:48.927Z,76.36
2023-05-27T00:18:52.088Z,75.89
2023-05-27T00:19:55.490Z,76.62
2023-05-27T00:20:59.082Z,76.08
2023-05-27T00:22:02.119Z,76.05
2023-05-27T00:23:04.977Z,76.12
2023-05-27T00:24:08.124Z,76.72
2023-05-27T00:25:12.210Z,76.74
2023-05-27T00:26:15.371Z,76.52
2023-05-27T00:27:18.273Z,76.42
2023-05-27T00:28:21.209Z,76.79
2023-05-27T00:29:26.240Z,76.77
2023-05-27T00:30:29.079Z,77.10
2023-05-27T00:31:32.003Z,76.59
2023-05-27T00:32:35.027Z,76.81
2023-05-27T00:33:38.053Z,77.11
2023-05-27T00:34:41.078Z,77.41
2023-05-27T00:35:43.964Z,76.96
2023-05-27T00:36:47.041Z,76.25
2023-05-27T00:37:50.017Z,76.59
2023-05-27T00:38:52.894Z,76.88
2023-05-27T00:39:55.810Z,77.09
2023-05-27T00:41:02.943Z,76.19
2023-05-27T00:42:06.129Z,76.22
2023-05-27T00:43:09.180Z,77.11
2023-05-27T00:44:12.015Z,76.27
2023-05-27T00:45:15.002Z,75.85
2023-05-27T00:46:18.087Z,76.41
2023-05-27T00:47:21.219Z,76.35
2023-05-27T00:48:24.251Z,75.81
2023-05-27T00:49:27.907Z,75.76
2023-05-27T00:50:31.663Z,75.75
2023-05-27T00:51:34.842Z,75.97
2023-05-27T00:52:37.979Z,76.59
2023-05-27T00:53:45.911Z,76.61
2023-05-27T00:54:49.266Z,76.46
2023-05-27T00:55:55.020Z,75.82
2023-05-27T00:56:58.175Z,76.02
2023-05-27T00:58:01.204Z,76.02
2023-05-27T00:59:04.713Z,75.94
2023-05-27T01:00:11.475Z,76.08
2023-05-27T01:01:14.877Z,75.70
2023-05-27T01:02:18.148Z,76.00
2023-05-27T01:03:21.956Z,75.77
2023-05-27T01:04:26.853Z,76.00
2023-05-27T01:05:30.511Z,75.88
2023-05-27T01:07:14.477Z,75.48
2023-05-27T01:08:25.988Z,75.26
2023-05-27T01:09:49.946Z,75.34
2023-05-27T01:10:55.514Z,75.52
2023-05-27T01:12:20.091Z,75.33
2023-05-27T01:13:29.005Z,75.62
2023-05-27T01:14:35.112Z,75.70
2023-05-27T01:15:38.521Z,76.21
2023-05-27T01:16:45.325Z,75.19
2023-05-27T01:17:49.185Z,75.34
2023-05-27T01:18:55.249Z,75.58
2023-05-27T01:20:00.587Z,75.72
2023-05-27T01:21:14.251Z,75.15
2023-05-27T01:22:20.472Z,75.55
2023-05-27T01:23:23.467Z,76.33
2023-05-27T01:24:26.386Z,75.12
2023-05-27T01:25:29.923Z,75.36
2023-05-27T01:26:33.029Z,75.93
2023-05-27T01:27:35.940Z,76.11
2023-05-27T01:28:39.078Z,75.98
2023-05-27T01:29:43.135Z,75.76
2023-05-27T01:30:45.989Z,75.42
2023-05-27T01:31:53.831Z,75.09
2023-05-27T01:33:03.998Z,75.71
2023-05-27T01:34:11.027Z,75.36
2023-05-27T01:35:23.496Z,74.80
2023-05-27T01:36:30.178Z,74.99
2023-05-27T01:37:37.429Z,75.10
2023-05-27T01:38:43.766Z,75.59
2023-05-27T01:39:50.306Z,74.01
2023-05-27T01:40:55.206Z,74.63
2023-05-27T01:42:02.008Z,74.56
2023-05-27T01:43:06.599Z,74.66
2023-05-27T01:44:11.381Z,75.38
2023-05-27T01:45:14.249Z,75.18
2023-05-27T01:46:17.469Z,74.92
2023-05-27T01:47:20.664Z,74.83
2023-05-27T01:48:23.659Z,74.47
2023-05-27T01:49:26.579Z,74.08
2023-05-27T01:50:31.786Z,74.50
2023-05-27T01:51:34.789Z,74.60
2023-05-27T01:52:37.764Z,74.88
2023-05-27T01:53:40.878Z,75.41
2023-05-27T01:54:43.787Z,76.13
2023-05-27T01:55:47.267Z,75.90
2023-05-27T01:56:50.324Z,75.58
2023-05-27T01:57:54.541Z,75.67
2023-05-27T01:58:57.508Z,75.66
2023-05-27T02:00:00.434Z,75.83
2023-05-27T02:01:03.469Z,75.64
2023-05-27T02:02:06.890Z,75.99
2023-05-27T02:03:10.062Z,75.39
2023-05-27T02:04:13.086Z,75.27
2023-05-27T02:05:16.292Z,75.99
2023-05-27T02:06:19.296Z,76.17
2023-05-27T02:07:22.437Z,75.13
2023-05-27T02:08:25.431Z,76.35
2023-05-27T02:09:28.370Z,76.33
2023-05-27T02:10:31.429Z,75.98
2023-05-27T02:11:34.271Z,76.06
2023-05-27T02:12:37.225Z,75.57
2023-05-27T02:13:40.147Z,76.19
2023-05-27T02:14:43.061Z,76.26
2023-05-27T02:15:46.343Z,76.20
2023-05-27T02:16:50.928Z,76.47
2023-05-27T02:17:56.850Z,76.36
2023-05-27T02:18:59.730Z,75.72
2023-05-27T02:20:02.819Z,75.26
2023-05-27T02:21:06.857Z,75.79
2023-05-27T02:22:10.009Z,75.69
2023-05-27T02:23:12.895Z,75.99
2023-05-27T02:24:15.937Z,75.92
2023-05-27T02:25:18.939Z,75.97
2023-05-27T02:26:23.319Z,75.25
2023-05-27T02:27:26.318Z,75.40
2023-05-27T02:28:29.303Z,75.30
2023-05-27T02:29:32.350Z,75.59
2023-05-27T02:30:35.264Z,75.56
2023-05-27T02:31:38.249Z,75.08
2023-05-27T02:32:41.758Z,75.61
2023-05-27T02:33:44.674Z,75.63
2023-05-27T02:34:47.583Z,75.47
2023-05-27T02:35:50.935Z,74.91
2023-05-27T02:36:54.141Z,74.90
2023-05-27T02:37:57.203Z,74.95
2023-05-27T02:39:00.176Z,75.53
2023-05-27T02:40:04.202Z,75.39
2023-05-27T02:41:07.111Z,75.39
2023-05-27T02:42:10.052Z,75.82
2023-05-27T02:43:12.946Z,75.22
2023-05-27T02:44:15.912Z,75.30
2023-05-27T02:45:18.625Z,75.55
2023-05-27T02:46:21.718Z,75.46
2023-05-27T02:47:24.735Z,74.80
2023-05-27T02:48:27.492Z,75.66
2023-05-27T02:49:30.453Z,75.41
2023-05-27T02:50:33.263Z,75.33
2023-05-27T02:51:36.472Z,75.51
2023-05-27T02:52:39.255Z,76.35
2023-05-27T02:53:42.109Z,76.31
2023-05-27T02:54:44.991Z,76.34
2023-05-27T02:55:48.072Z,76.33
2023-05-27T02:56:51.516Z,75.34
2023-05-27T02:57:54.502Z,75.46
2023-05-27T02:58:57.210Z,75.34
2023-05-27T03:00:00.246Z,75.09
2023-05-27T03:01:03.095Z,75.20
2023-05-27T03:02:06.509Z,75.07
2023-05-27T03:03:09.617Z,75.22
2023-05-27T03:04:12.978Z,75.04
2023-05-27T03:05:15.878Z,75.34
2023-05-27T03:06:18.792Z,75.76
2023-05-27T03:07:21.576Z,75.62
2023-05-27T03:08:24.437Z,75.44
2023-05-27T03:09:27.269Z,75.82
2023-05-27T03:10:31.629Z,76.37
2023-05-27T03:11:34.796Z,76.58
2023-05-27T03:12:37.712Z,76.09
2023-05-27T03:13:40.690Z,76.61
2023-05-27T03:14:43.568Z,76.38
2023-05-27T03:15:46.444Z,76.25
2023-05-27T03:16:49.488Z,76.32
2023-05-27T03:17:53.321Z,76.34
2023-05-27T03:18:56.249Z,76.06
2023-05-27T03:19:59.263Z,75.79
2023-05-27T03:21:02.747Z,76.45
2023-05-27T03:22:06.192Z,76.87
2023-05-27T03:23:09.100Z,76.36
2023-05-27T03:24:12.287Z,76.72
2023-05-27T03:25:15.836Z,76.66
2023-05-27T03:26:18.766Z,76.40
2023-05-27T03:27:21.923Z,76.17
2023-05-27T03:28:24.719Z,75.64
2023-05-27T03:29:27.663Z,76.23
2023-05-27T03:30:30.374Z,76.00
2023-05-27T03:31:33.397Z,75.93
2023-05-27T03:32:36.394Z,75.29
2023-05-27T03:33:39.554Z,75.75
2023-05-27T03:34:42.421Z,75.16
2023-05-27T03:35:45.242Z,75.36
2023-05-27T03:36:48.808Z,75.31
2023-05-27T03:37:51.758Z,75.12
2023-05-27T03:38:54.696Z,74.57
2023-05-27T03:39:58.540Z,74.78
2023-05-27T03:41:01.372Z,74.93
2023-05-27T03:42:04.352Z,74.62
2023-05-27T03:43:07.175Z,74.89
2023-05-27T03:44:10.415Z,74.97
2023-05-27T03:45:13.207Z,75.59
2023-05-27T03:46:16.162Z,75.03
2023-05-27T03:47:21.935Z,75.13
2023-05-27T03:48:24.956Z,74.39
2023-05-27T03:49:27.796Z,74.19
2023-05-27T03:50:30.721Z,74.61
2023-05-27T03:51:33.533Z,74.78
2023-05-27T03:52:36.337Z,75.11
2023-05-27T03:53:39.275Z,75.75
2023-05-27T03:54:43.054Z,74.93
2023-05-27T03:55:46.084Z,74.44
2023-05-27T03:56:49.380Z,74.69
2023-05-27T03:57:52.260Z,73.92
2023-05-27T03:58:55.223Z,74.52
2023-05-27T03:59:58.124Z,73.81
2023-05-27T04:01:00.843Z,72.78
2023-05-27T04:02:03.920Z,74.01
2023-05-27T04:03:07.149Z,74.19
2023-05-27T04:04:10.275Z,72.47
2023-05-27T04:05:13.215Z,72.18
2023-05-27T04:06:16.664Z,72.69
2023-05-27T04:07:20.367Z,73.41
2023-05-27T04:08:23.717Z,72.90
2023-05-27T04:09:26.764Z,72.44
2023-05-27T04:10:29.561Z,73.38
2023-05-27T04:11:32.642Z,72.88
2023-05-27T04:12:35.486Z,72.67
2023-05-27T04:13:38.304Z,72.33
2023-05-27T04:14:41.156Z,72.57
2023-05-27T04:15:44.066Z,72.41
2023-05-27T04:16:47.139Z,72.69
2023-05-27T04:17:50.190Z,73.08
2023-05-27T04:18:53.774Z,72.78
2023-05-27T04:19:57.912Z,72.51
2023-05-27T04:21:01.279Z,72.61
2023-05-27T04:22:04.288Z,72.51
2023-05-27T04:23:11.480Z,72.18
2023-05-27T04:24:14.442Z,71.82
2023-05-27T04:25:17.310Z,72.76
2023-05-27T04:26:21.255Z,72.96
2023-05-27T04:27:26.229Z,72.45
2023-05-27T04:28:29.245Z,72.89
2023-05-27T04:29:33.176Z,73.43
2023-05-27T04:30:36.230Z,72.53
2023-05-27T04:31:39.804Z,73.08
2023-05-27T04:32:42.525Z,73.59
2023-05-27T04:33:45.910Z,73.65
2023-05-27T04:34:50.430Z,73.93
2023-05-27T04:35:54.881Z,73.96
2023-05-27T04:36:57.721Z,73.82
2023-05-27T04:38:02.681Z,73.06
2023-05-27T04:39:05.773Z,72.40
2023-05-27T04:40:10.102Z,72.70
2023-05-27T04:41:13.386Z,71.94
2023-05-27T04:42:16.837Z,72.14
2023-05-27T04:43:20.659Z,71.93
2023-05-27T04:44:23.597Z,71.81
2023-05-27T04:45:28.246Z,71.07
2023-05-27T04:46:31.620Z,71.48
2023-05-27T04:47:39.470Z,71.45
2023-05-27T04:48:46.327Z,71.29
2023-05-27T04:49:49.168Z,71.69
2023-05-27T04:50:54.453Z,71.12
2023-05-27T04:51:57.265Z,69.88
2023-05-27T04:53:01.889Z,69.80
2023-05-27T04:54:07.179Z,70.46
2023-05-27T04:55:12.251Z,70.34
2023-05-27T04:56:18.550Z,69.78
2023-05-27T04:57:22.159Z,70.16
2023-05-27T04:58:25.337Z,69.47
2023-05-27T04:59:47.242Z,68.28
2023-05-27T05:00:54.965Z,68.20
2023-05-27T05:02:11.539Z,68.47
2023-05-27T05:03:22.069Z,67.52
2023-05-27T05:04:25.168Z,68.23
2023-05-27T05:05:28.292Z,69.61
2023-05-27T05:06:31.131Z,68.10
2023-05-27T05:07:34.777Z,68.46
2023-05-27T05:08:37.831Z,68.54
2023-05-27T05:09:40.694Z,67.70
2023-05-27T05:10:43.657Z,68.14
2023-05-27T05:11:46.471Z,67.20
2023-05-27T05:12:49.836Z,67.92
2023-05-27T05:13:52.615Z,67.60
2023-05-27T05:14:55.530Z,66.60
2023-05-27T05:15:58.338Z,67.13
2023-05-27T05:17:01.331Z,66.99
2023-05-27T05:18:04.368Z,66.44
2023-05-27T05:19:07.185Z,66.59
2023-05-27T05:20:11.432Z,65.75
2023-05-27T05:21:14.433Z,66.47
2023-05-27T05:22:19.887Z,65.11
2023-05-27T05:23:22.720Z,65.92
2023-05-27T05:24:25.618Z,66.30
2023-05-27T05:25:28.473Z,65.94
2023-05-27T05:26:31.357Z,67.05
2023-05-27T05:27:34.930Z,66.46
2023-05-27T05:28:37.790Z,64.90
2023-05-27T05:29:40.654Z,64.25
2023-05-27T05:30:43.502Z,64.86
2023-05-27T05:31:46.670Z,67.08
2023-05-27T05:32:49.646Z,66.50
2023-05-27T05:33:52.675Z,66.13
2023-05-27T05:34:57.102Z,65.51
2023-05-27T05:35:59.881Z,64.15
2023-05-27T05:37:02.763Z,64.00
2023-05-27T05:38:06.071Z,65.15
2023-05-27T05:39:09.322Z,62.84
2023-05-27T05:40:12.566Z,64.01
2023-05-27T05:41:15.572Z,64.94
2023-05-27T05:42:18.754Z,62.22
2023-05-27T05:43:21.894Z,62.01
2023-05-27T05:44:25.455Z,61.83
2023-05-27T05:45:28.318Z,61.53
2023-05-27T05:46:31.224Z,62.35
2023-05-27T05:47:34.429Z,62.06
2023-05-27T05:48:37.596Z,60.75
2023-05-27T05:49:40.601Z,61.24
2023-05-27T05:50:44.024Z,60.62
2023-05-27T05:51:47.822Z,60.14
2023-05-27T05:52:51.078Z,60.37
2023-05-27T05:53:54.284Z,59.46
2023-05-27T05:54:57.085Z,59.98
2023-05-27T05:55:59.805Z,60.61
2023-05-27T05:57:03.838Z,60.60
2023-05-27T05:58:06.682Z,60.51
2023-05-27T05:59:09.727Z,60.29
2023-05-27T06:00:13.372Z,59.46
2023-05-27T06:01:17.366Z,59.67
2023-05-27T06:02:20.478Z,60.49
2023-05-27T06:03:23.473Z,59.11
2023-05-27T06:04:26.349Z,58.78
2023-05-27T06:05:29.319Z,59.50
2023-05-27T06:06:32.305Z,60.04
2023-05-27T06:07:35.185Z,59.30
2023-05-27T06:08:38.175Z,58.01
2023-05-27T06:09:41.142Z,59.10
2023-05-27T06:10:44.051Z,59.00
2023-05-27T06:11:46.904Z,58.67
2023-05-27T06:12:49.700Z,57.95
2023-05-27T06:13:52.767Z,59.48
2023-05-27T06:14:55.519Z,58.95
2023-05-27T06:15:58.412Z,58.34
2023-05-27T06:17:01.599Z,58.35
2023-05-27T06:18:05.438Z,59.38
2023-05-27T06:19:08.527Z,58.22
2023-05-27T06:20:12.014Z,59.10
2023-05-27T06:21:14.863Z,58.29
2023-05-27T06:22:18.061Z,58.66
2023-05-27T06:23:20.918Z,57.90
2023-05-27T06:24:23.911Z,57.16
2023-05-27T06:25:26.877Z,57.07
2023-05-27T06:26:29.792Z,57.54
2023-05-27T06:27:32.774Z,56.67
2023-05-27T06:28:35.717Z,56.82
2023-05-27T06:29:38.709Z,57.68
2023-05-27T06:30:41.591Z,57.77
2023-05-27T06:31:44.613Z,57.09
2023-05-27T06:32:47.691Z,56.86
2023-05-27T06:33:50.798Z,56.88
2023-05-27T06:34:53.772Z,56.97
2023-05-27T06:35:56.690Z,56.96
2023-05-27T06:36:59.522Z,56.88
2023-05-27T06:38:03.090Z,56.56
2023-05-27T06:39:06.094Z,56.03
2023-05-27T06:40:09.381Z,55.64
2023-05-27T06:41:12.316Z,55.85
2023-05-27T06:42:15.977Z,55.14
2023-05-27T06:43:19.038Z,56.72
2023-05-27T06:44:21.886Z,56.39
2023-05-27T06:45:24.845Z,55.95
2023-05-27T06:46:27.892Z,55.93
2023-05-27T06:47:31.053Z,57.53
2023-05-27T06:48:33.924Z,58.30
2023-05-27T06:49:36.882Z,56.24
2023-05-27T06:50:39.721Z,55.16
2023-05-27T06:51:42.799Z,54.63
2023-05-27T06:52:45.697Z,55.47
2023-05-27T06:53:48.429Z,56.46
2023-05-27T06:54:51.334Z,56.71
2023-05-27T06:55:54.171Z,55.25
2023-05-27T06:56:57.075Z,55.25
2023-05-27T06:57:59.932Z,55.33
2023-05-27T06:59:03.143Z,53.84
2023-05-27T07:00:07.290Z,54.22
2023-05-27T07:01:10.733Z,53.51
2023-05-27T07:02:13.721Z,54.02
2023-05-27T07:03:16.701Z,55.43
2023-05-27T07:04:19.627Z,55.45
2023-05-27T07:05:22.614Z,54.44
2023-05-27T07:06:25.698Z,54.96
2023-05-27T07:07:28.623Z,55.28
2023-05-27T07:08:31.588Z,55.27
2023-05-27T07:09:34.572Z,55.14
2023-05-27T07:10:37.687Z,55.47
2023-05-27T07:11:40.951Z,55.33
2023-05-27T07:12:43.791Z,55.40
2023-05-27T07:13:46.681Z,54.64
2023-05-27T07:14:49.633Z,53.70
2023-05-27T07:15:52.548Z,53.86
2023-05-27T07:16:55.433Z,54.34
2023-05-27T07:17:58.341Z,54.42
2023-05-27T07:19:01.289Z,54.06
2023-05-27T07:20:04.486Z,53.26
2023-05-27T07:21:07.617Z,54.33
2023-05-27T07:22:10.475Z,55.65
2023-05-27T07:23:13.401Z,53.94
2023-05-27T07:24:16.230Z,54.36
2023-05-27T07:25:19.094Z,53.70
2023-05-27T07:26:21.876Z,54.60
2023-05-27T07:27:24.872Z,55.93
2023-05-27T07:28:27.924Z,54.15
2023-05-27T07:29:30.755Z,52.09
2023-05-27T07:30:33.874Z,51.55
2023-05-27T07:31:36.766Z,51.66
2023-05-27T07:32:40.260Z,52.87
2023-05-27T07:33:43.425Z,52.52
2023-05-27T07:34:46.300Z,52.66
2023-05-27T07:35:49.266Z,52.77
2023-05-27T07:36:52.141Z,52.15
2023-05-27T07:37:55.261Z,53.26
2023-05-27T07:38:58.070Z,52.77
2023-05-27T07:40:00.995Z,51.75
2023-05-27T07:41:03.943Z,51.05
2023-05-27T07:42:06.933Z,49.79
2023-05-27T07:43:09.865Z,49.52
2023-05-27T07:44:12.662Z,48.37
2023-05-27T07:45:15.599Z,50.16
2023-05-27T07:46:18.422Z,51.64
2023-05-27T07:47:21.738Z,50.88
2023-05-27T07:48:24.584Z,49.73
2023-05-27T07:49:27.565Z,50.63
2023-05-27T07:50:30.434Z,50.61
2023-05-27T07:51:33.390Z,49.86
2023-05-27T07:52:36.349Z,49.46
2023-05-27T07:53:39.204Z,48.63
2023-05-27T07:54:51.151Z,48.14
2023-05-27T07:55:57.407Z,48.90
2023-05-27T07:57:00.256Z,50.26
2023-05-27T07:58:03.087Z,49.72
2023-05-27T07:59:06.368Z,49.68
2023-05-27T08:00:09.676Z,47.68
2023-05-27T08:01:12.591Z,48.14
2023-05-27T08:02:15.612Z,48.11
2023-05-27T08:03:18.546Z,47.48
2023-05-27T08:04:25.546Z,47.38
2023-05-27T08:05:29.282Z,49.10
2023-05-27T08:06:32.171Z,49.47
2023-05-27T08:07:35.107Z,48.63
2023-05-27T08:08:37.952Z,49.61
2023-05-27T08:09:40.892Z,49.63
2023-05-27T08:10:45.606Z,48.80
2023-05-27T08:11:48.492Z,48.42
2023-05-27T08:12:51.515Z,49.61
2023-05-27T08:13:54.357Z,49.30
2023-05-27T08:14:57.265Z,49.14
2023-05-27T08:15:59.998Z,49.64
2023-05-27T08:17:03.035Z,51.38
2023-05-27T08:18:06.296Z,47.05
2023-05-27T08:19:09.240Z,48.43
2023-05-27T08:20:12.758Z,50.25
2023-05-27T08:21:15.649Z,49.50
2023-05-27T08:22:18.550Z,46.89
2023-05-27T08:23:21.366Z,46.51
2023-05-27T08:24:28.655Z,45.72
2023-05-27T08:25:31.790Z,43.83
2023-05-27T08:26:34.668Z,46.09
2023-05-27T08:28:03.051Z,44.79
2023-05-27T08:29:06.814Z,44.91
2023-05-27T08:30:09.992Z,42.38
2023-05-27T08:31:13.283Z,43.34
2023-05-27T08:32:16.368Z,43.28
2023-05-27T08:33:19.370Z,41.71
2023-05-27T08:34:22.149Z,42.19
2023-05-27T08:35:25.332Z,41.04
2023-05-27T08:36:28.162Z,41.41
2023-05-27T08:37:31.410Z,40.15
2023-05-27T08:38:34.270Z,40.56
2023-05-27T08:39:37.172Z,40.06
2023-05-27T08:40:40.051Z,40.79
2023-05-27T08:41:43.027Z,42.98
2023-05-27T08:42:47.130Z,40.57
2023-05-27T08:43:50.619Z,39.97
2023-05-27T08:44:53.526Z,40.92
2023-05-27T08:45:57.816Z,42.15
2023-05-27T08:47:01.270Z,41.99
2023-05-27T08:48:04.451Z,40.60
2023-05-27T08:49:08.894Z,38.79
2023-05-27T08:50:12.131Z,39.68
2023-05-27T08:51:19.991Z,37.91
2023-05-27T08:52:24.919Z,39.34
2023-05-27T08:53:27.947Z,39.38
2023-05-27T08:54:32.069Z,39.08
2023-05-27T08:55:35.484Z,39.84
2023-05-27T08:56:40.736Z,39.64
2023-05-27T08:57:47.681Z,40.08
2023-05-27T08:58:52.268Z,40.34
2023-05-27T08:59:55.130Z,39.57
2023-05-27T09:00:58.445Z,38.73
2023-05-27T09:02:02.082Z,39.62
2023-05-27T09:03:05.320Z,39.65
2023-05-27T09:04:08.277Z,39.05
2023-05-27T09:05:12.312Z,38.88
2023-05-27T09:06:15.578Z,38.49
2023-05-27T09:07:21.414Z,38.55
2023-05-27T09:08:28.090Z,37.67
2023-05-27T09:09:35.936Z,38.41
2023-05-27T09:10:40.040Z,36.71
2023-05-27T09:11:44.051Z,35.94
2023-05-27T09:12:47.270Z,36.03
2023-05-27T09:13:50.074Z,35.66
2023-05-27T09:14:53.860Z,34.09
2023-05-27T09:16:04.974Z,33.39
2023-05-27T09:17:09.756Z,32.89
2023-05-27T09:18:16.529Z,36.40
2023-05-27T09:19:20.324Z,37.88
2023-05-27T09:20:27.834Z,37.71
2023-05-27T09:21:31.601Z,39.20
2023-05-27T09:22:34.576Z,39.77
2023-05-27T09:23:41.370Z,38.33
2023-05-27T09:24:44.158Z,37.45
2023-05-27T09:25:47.520Z,39.10
2023-05-27T09:26:53.186Z,38.80
2023-05-27T09:27:57.089Z,40.57
2023-05-27T09:29:04.690Z,39.03
2023-05-27T09:30:09.324Z,40.17
2023-05-27T09:31:12.757Z,39.64
2023-05-27T09:32:28.780Z,42.10
2023-05-27T09:33:33.969Z,40.84
2023-05-27T09:34:40.606Z,41.31
2023-05-27T09:35:44.555Z,42.40
2023-05-27T09:36:49.483Z,42.34
2023-05-27T09:37:52.452Z,42.30
2023-05-27T09:38:55.284Z,43.06
2023-05-27T09:39:58.259Z,42.88
2023-05-27T09:41:02.441Z,43.22
2023-05-27T09:42:05.556Z,42.88
2023-05-27T09:43:08.982Z,42.64
2023-05-27T09:44:12.062Z,42.89
2023-05-27T09:45:19.917Z,43.15
2023-05-27T09:46:24.437Z,43.35
2023-05-27T09:47:27.595Z,43.21
2023-05-27T09:48:32.888Z,43.06
2023-05-27T09:49:38.974Z,44.69
2023-05-27T09:50:43.106Z,45.08
2023-05-27T09:51:48.492Z,46.08
2023-05-27T09:53:59.257Z,43.95
2023-05-27T09:55:03.201Z,43.74
2023-05-27T09:56:06.172Z,43.32
2023-05-27T09:57:09.617Z,44.73
2023-05-27T09:58:13.485Z,44.01
2023-05-27T09:59:16.673Z,44.45
2023-05-27T10:00:20.881Z,44.96
2023-05-27T10:01:30.389Z,44.11
2023-05-27T10:02:34.843Z,41.49
2023-05-27T10:03:39.511Z,41.44
2023-05-27T10:04:42.479Z,44.56
2023-05-27T10:05:48.882Z,43.44
2023-05-27T10:06:52.677Z,44.58
2023-05-27T10:09:19.026Z,43.23
2023-05-27T10:10:22.410Z,42.85
2023-05-27T10:11:33.239Z,41.15
2023-05-27T10:12:38.110Z,39.30
2023-05-27T10:13:41.680Z,39.55
2023-05-27T10:14:47.599Z,41.05
2023-05-27T10:15:53.630Z,41.79
2023-05-27T10:16:58.071Z,43.31
2023-05-27T10:18:10.888Z,41.73
2023-05-27T10:19:13.748Z,42.57
2023-05-27T10:20:33.176Z,39.16
2023-05-27T10:21:45.150Z,39.59
2023-05-27T10:22:48.016Z,39.04
2023-05-27T10:24:01.545Z,35.61
2023-05-27T10:25:14.574Z,36.12
2023-05-27T10:26:17.480Z,35.06
2023-05-27T10:27:22.569Z,37.05
2023-05-27T10:28:30.235Z,38.49
2023-05-27T10:29:40.193Z,38.57
2023-05-27T10:30:47.799Z,36.74
2023-05-27T10:31:54.286Z,39.42
2023-05-27T10:32:57.495Z,40.40
2023-05-27T10:34:00.370Z,40.48
2023-05-27T10:35:03.297Z,40.08
2023-05-27T10:36:11.663Z,39.32
2023-05-27T10:37:22.400Z,40.90
2023-05-27T10:38:25.432Z,39.96
2023-05-27T10:39:29.891Z,38.67
2023-05-27T10:40:33.322Z,40.15
2023-05-27T10:41:44.008Z,40.76
2023-05-27T10:42:46.935Z,38.68
2023-05-27T10:43:58.212Z,36.96
2023-05-27T10:45:10.468Z,37.29
2023-05-27T10:46:14.794Z,36.71
2023-05-27T10:47:17.924Z,36.93
2023-05-27T10:48:21.584Z,37.58
2023-05-27T10:49:26.780Z,40.07
2023-05-27T10:50:36.149Z,40.84
2023-05-27T10:51:40.063Z,38.52
2023-05-27T10:52:43.466Z,36.96
2023-05-27T10:53:50.531Z,38.52
2023-05-27T10:55:03.125Z,35.65
2023-05-27T10:56:06.487Z,34.57
2023-05-27T10:57:09.738Z,36.46
2023-05-27T10:58:13.296Z,34.88
2023-05-27T10:59:24.088Z,36.87
2023-05-27T11:00:28.634Z,37.42
2023-05-27T11:01:34.468Z,36.71
2023-05-27T11:02:40.485Z,34.58
2023-05-27T11:03:47.555Z,34.94
2023-05-27T11:04:50.865Z,35.53
2023-05-27T11:06:07.047Z,36.67
2023-05-27T11:07:10.233Z,36.61
2023-05-27T11:08:14.289Z,38.65
2023-05-27T11:09:17.118Z,36.70
2023-05-27T11:10:20.040Z,39.04
2023-05-27T11:11:24.208Z,40.09
2023-05-27T11:12:27.459Z,39.01
2023-05-27T11:13:37.633Z,40.26
2023-05-27T11:14:40.441Z,39.14
2023-05-27T11:15:43.370Z,37.97
2023-05-27T11:16:52.941Z,37.87
2023-05-27T11:18:02.172Z,38.29
2023-05-27T11:19:05.101Z,37.87
2023-05-27T11:20:09.324Z,35.32
2023-05-27T11:21:13.452Z,33.02
2023-05-27T11:22:18.321Z,35.71
2023-05-27T11:23:22.729Z,35.13
2023-05-27T11:24:25.621Z,35.57
2023-05-27T11:25:28.534Z,35.53
2023-05-27T11:26:31.438Z,35.05
2023-05-27T11:27:43.241Z,34.18
2023-05-27T11:28:51.893Z,34.49
2023-05-27T11:29:54.690Z,32.46
2023-05-27T11:31:05.082Z,32.08
2023-05-27T11:32:09.475Z,32.57
2023-05-27T11:33:27.955Z,31.26
2023-05-27T11:34:37.100Z,30.73
2023-05-27T11:35:39.980Z,31.71
2023-05-27T11:36:46.734Z,32.93
2023-05-27T11:37:54.258Z,31.61
2023-05-27T11:38:57.076Z,30.69
2023-05-27T11:40:00.075Z,30.35
2023-05-27T11:41:09.801Z,30.76
2023-05-27T11:42:13.358Z,30.17
2023-05-27T11:43:20.177Z,30.14
2023-05-27T11:44:28.401Z,29.95
2023-05-27T11:45:37.348Z,33.56
2023-05-27T11:46:43.719Z,34.25
2023-05-27T11:47:52.610Z,33.97
2023-05-27T11:48:55.998Z,34.31
2023-05-27T11:49:58.827Z,33.04
2023-05-27T11:51:01.814Z,33.74
2023-05-27T11:52:05.305Z,32.29
2023-05-27T11:53:08.428Z,30.05
2023-05-27T11:54:32.725Z,28.96
2023-05-27T11:55:36.767Z,30.75
2023-05-27T11:56:39.735Z,29.27
2023-05-27T11:57:42.605Z,29.43
2023-05-27T11:58:45.468Z,29.07
2023-05-27T11:59:48.331Z,32.31
2023-05-27T12:00:52.023Z,31.12
2023-05-27T12:01:55.374Z,32.91
2023-05-27T12:02:58.435Z,32.29
2023-05-27T12:04:01.307Z,32.51
2023-05-27T12:05:04.500Z,31.23
2023-05-27T12:06:07.817Z,32.45
2023-05-27T12:07:19.932Z,33.03
2023-05-27T12:08:24.484Z,33.50
2023-05-27T12:09:28.462Z,32.68
2023-05-27T12:10:31.455Z,31.58
2023-05-27T12:11:34.532Z,29.78
2023-05-27T12:12:39.583Z,28.57
2023-05-27T12:13:42.509Z,29.79
2023-05-27T12:14:45.374Z,32.31
2023-05-27T12:15:52.164Z,31.57
2023-05-27T12:16:55.371Z,31.38
2023-05-27T12:17:58.456Z,29.22
2023-05-27T12:19:01.710Z,30.00
2023-05-27T12:20:07.570Z,29.93
2023-05-27T12:21:10.598Z,29.91
2023-05-27T12:22:13.438Z,30.01
2023-05-27T12:23:16.325Z,30.39
2023-05-27T12:24:20.991Z,33.29
2023-05-27T12:25:23.842Z,34.37
2023-05-27T12:26:27.161Z,34.93
2023-05-27T12:27:30.055Z,34.73
2023-05-27T12:28:32.885Z,34.91
2023-05-27T12:29:36.176Z,36.11
2023-05-27T12:30:39.062Z,38.17
2023-05-27T12:31:42.113Z,39.13
2023-05-27T12:32:45.632Z,40.72
2023-05-27T12:33:48.801Z,39.93
2023-05-27T12:34:51.598Z,39.25
2023-05-27T12:35:54.488Z,39.84
2023-05-27T12:36:57.352Z,40.49
2023-05-27T12:38:00.398Z,40.58
2023-05-27T12:39:03.248Z,39.60
2023-05-27T12:40:06.888Z,39.81
2023-05-27T12:41:09.829Z,42.31
2023-05-27T12:42:12.766Z,43.33
2023-05-27T12:43:16.404Z,43.59
2023-05-27T12:44:20.019Z,43.65
2023-05-27T12:45:24.381Z,44.36
2023-05-27T12:46:27.421Z,45.11
2023-05-27T12:47:30.941Z,45.22
2023-05-27T12:48:33.941Z,46.57
2023-05-27T12:49:38.300Z,46.44
2023-05-27T12:50:41.775Z,45.20
2023-05-27T12:51:44.787Z,44.05
2023-05-27T12:52:47.804Z,44.21
2023-05-27T12:53:50.712Z,44.74
2023-05-27T12:54:53.556Z,44.82
2023-05-27T12:55:56.463Z,44.45
2023-05-27T12:56:59.412Z,44.62
2023-05-27T12:58:02.565Z,44.32
2023-05-27T12:59:07.639Z,46.58
2023-05-27T13:00:11.411Z,46.27
2023-05-27T13:01:14.633Z,46.72
2023-05-27T13:02:17.591Z,45.03
2023-05-27T13:03:21.000Z,45.57
2023-05-27T13:04:23.984Z,44.91
2023-05-27T13:05:26.866Z,44.47
2023-05-27T13:06:29.743Z,43.82
2023-05-27T13:07:32.619Z,44.67
2023-05-27T13:08:35.557Z,45.69
2023-05-27T13:09:41.986Z,45.70
2023-05-27T13:10:44.917Z,47.66
2023-05-27T13:11:49.216Z,49.07
2023-05-27T13:12:52.826Z,48.61
2023-05-27T13:13:56.105Z,48.49
2023-05-27T13:14:59.722Z,47.42
2023-05-27T13:16:02.841Z,49.67
2023-05-27T13:17:07.559Z,48.92
2023-05-27T13:18:11.491Z,49.15
2023-05-27T13:19:14.401Z,48.90
2023-05-27T13:20:17.778Z,48.13
2023-05-27T13:21:20.891Z,48.21
2023-05-27T13:22:24.930Z,47.79
2023-05-27T13:23:30.304Z,48.89
2023-05-27T13:24:33.248Z,49.11
2023-05-27T13:25:36.072Z,48.89
2023-05-27T13:26:38.959Z,48.79
2023-05-27T13:27:43.649Z,49.04
2023-05-27T13:28:46.597Z,48.46
2023-05-27T13:29:49.564Z,48.68
2023-05-27T13:30:53.117Z,47.80
2023-05-27T13:31:57.156Z,48.79
2023-05-27T13:33:43.470Z,46.99
2023-05-27T13:34:47.379Z,46.99
2023-05-27T13:35:50.477Z,47.31
2023-05-27T13:36:53.476Z,47.00
2023-05-27T13:37:56.835Z,47.95
2023-05-27T13:38:59.734Z,48.57
2023-05-27T13:40:03.217Z,48.01
2023-05-27T13:41:07.104Z,47.00
2023-05-27T13:42:11.591Z,47.45
2023-05-27T13:43:14.615Z,46.97
2023-05-27T13:44:17.637Z,45.90
2023-05-27T13:45:20.706Z,46.11
2023-05-27T13:46:23.585Z,47.13
2023-05-27T13:47:26.822Z,46.00
2023-05-27T13:48:29.722Z,45.27
2023-05-27T13:49:32.684Z,45.87